createdAt,value
2022-08-10T00:00:51.608Z,16.90
2022-08-10T00:03:18.372Z,16.80
2022-08-10T00:05:53.266Z,16.90
2022-08-10T00:08:25.044Z,16.80
2022-08-10T00:10:56.033Z,16.70
2022-08-10T00:13:26.401Z,16.70
2022-08-10T00:15:55.265Z,16.70
2022-08-10T00:18:34.421Z,16.70
2022-08-10T00:21:03.382Z,16.60
2022-08-10T00:23:32.395Z,16.60
2022-08-10T00:25:59.864Z,16.70
2022-08-10T00:28:26.669Z,16.60
2022-08-10T00:30:55.899Z,16.60
2022-08-10T00:33:22.752Z,16.60
2022-08-10T00:35:52.224Z,16.60
2022-08-10T00:38:21.650Z,16.60
2022-08-10T00:40:48.519Z,16.60
2022-08-10T00:43:15.335Z,16.50
2022-08-10T00:45:59.291Z,16.40
2022-08-10T00:48:28.972Z,16.40
2022-08-10T00:50:58.296Z,16.30
2022-08-10T00:53:26.626Z,16.40
2022-08-10T00:57:09.128Z,16.50
2022-08-10T00:58:43.216Z,16.40
2022-08-10T01:01:22.600Z,16.50
2022-08-10T01:04:58.847Z,16.40
2022-08-10T01:07:02.710Z,16.30
2022-08-10T01:09:32.442Z,16.30
2022-08-10T01:12:39.327Z,16.20
2022-08-10T01:15:13.622Z,16.20
2022-08-10T01:17:51.599Z,16.20
2022-08-10T01:20:27.497Z,16.20
2022-08-10T01:23:18.776Z,16.10
2022-08-10T01:26:11.547Z,16.10
2022-08-10T01:28:42.537Z,16.10
2022-08-10T01:31:14.602Z,16.00
2022-08-10T01:33:58.101Z,16.00
2022-08-10T01:36:40.822Z,16.00
2022-08-10T01:39:08.875Z,16.00
2022-08-10T01:41:46.538Z,15.90
2022-08-10T01:44:19.964Z,15.90
2022-08-10T01:46:53.156Z,15.80
2022-08-10T01:49:25.748Z,15.80
2022-08-10T01:52:00.465Z,15.80
2022-08-10T01:54:30.123Z,15.70
2022-08-10T01:57:01.634Z,15.70
2022-08-10T01:59:35.917Z,15.70
2022-08-10T02:02:10.075Z,15.70
2022-08-10T02:04:40.331Z,15.60
2022-08-10T02:07:09.420Z,15.60
2022-08-10T02:09:42.706Z,15.60
2022-08-10T02:12:13.503Z,15.70
2022-08-10T02:14:44.072Z,15.60
2022-08-10T02:18:00.748Z,15.50
2022-08-10T02:20:06.747Z,15.40
2022-08-10T02:22:46.093Z,15.40
2022-08-10T02:25:42.167Z,15.40
2022-08-10T02:28:04.865Z,15.30
2022-08-10T02:30:33.723Z,15.30
2022-08-10T02:33:02.053Z,15.30
2022-08-10T02:35:33.491Z,15.40
2022-08-10T02:38:23.361Z,15.40
2022-08-10T02:45:01.645Z,15.30
2022-08-10T02:45:19.470Z,15.20
2022-08-10T02:47:24.204Z,15.10
2022-08-10T02:50:07.845Z,15.00
2022-08-10T02:52:45.394Z,14.90
2022-08-10T02:55:33.934Z,15.00
2022-08-10T02:58:17.265Z,15.00
2022-08-10T03:00:49.782Z,15.00
2022-08-10T03:03:21.088Z,15.00
2022-08-10T03:05:58.388Z,14.90
2022-08-10T03:08:30.833Z,14.90
2022-08-10T03:11:01.964Z,14.90
2022-08-10T03:13:30.934Z,14.80
2022-08-10T03:16:00.239Z,14.80
2022-08-10T03:18:30.253Z,14.70
2022-08-10T03:20:58.851Z,14.80
2022-08-10T03:23:27.966Z,14.80
2022-08-10T03:25:59.098Z,14.80
2022-08-10T03:28:29.020Z,14.70
2022-08-10T03:30:57.623Z,14.60
2022-08-10T03:33:28.424Z,14.60
2022-08-10T03:36:43.936Z,14.60
2022-08-10T03:38:44.458Z,14.60
2022-08-10T03:41:16.779Z,14.50
2022-08-10T03:43:48.304Z,14.50
2022-08-10T03:46:19.022Z,14.50
2022-08-10T03:48:49.034Z,14.40
2022-08-10T03:51:21.661Z,14.30
2022-08-10T03:54:03.682Z,14.30
2022-08-10T03:56:34.977Z,14.30
2022-08-10T03:59:02.068Z,14.20
2022-08-10T04:02:41.816Z,14.20
2022-08-10T04:04:24.021Z,14.20
2022-08-10T04:07:01.308Z,14.20
2022-08-10T04:09:55.441Z,14.10
2022-08-10T04:12:17.463Z,14.10
2022-08-10T04:14:51.350Z,14.10
2022-08-10T04:17:57.031Z,14.20
2022-08-10T04:20:19.502Z,14.30
2022-08-10T04:22:50.079Z,14.20
2022-08-10T04:25:20.003Z,14.10
2022-08-10T04:27:50.422Z,14.00
2022-08-10T04:30:17.632Z,14.00
2022-08-10T04:32:52.174Z,14.00
2022-08-10T04:35:20.937Z,14.00
2022-08-10T04:37:49.649Z,13.90
2022-08-10T04:40:25.119Z,13.90
2022-08-10T04:43:01.417Z,13.90
2022-08-10T04:45:50.157Z,14.00
2022-08-10T04:48:42.205Z,14.00
2022-08-10T04:51:06.943Z,14.00
2022-08-10T04:53:34.257Z,14.00
2022-08-10T04:56:31.514Z,14.00
2022-08-10T04:59:00.345Z,14.10
2022-08-10T05:02:21.433Z,14.50
2022-08-10T05:04:37.341Z,14.80
2022-08-10T05:07:01.656Z,14.80
2022-08-10T05:09:30.859Z,14.70
2022-08-10T05:11:59.909Z,14.60
2022-08-10T05:14:29.100Z,14.70
2022-08-10T05:16:55.806Z,14.80
2022-08-10T05:20:04.499Z,14.90
2022-08-10T05:22:12.975Z,14.90
2022-08-10T05:24:41.964Z,15.00
2022-08-10T05:27:10.893Z,15.10
2022-08-10T05:29:42.324Z,15.10
2022-08-10T05:32:10.692Z,15.20
2022-08-10T05:34:37.459Z,15.20
2022-08-10T05:37:05.849Z,15.30
2022-08-10T05:39:55.412Z,15.40
2022-08-10T05:42:27.047Z,15.50
2022-08-10T05:44:54.071Z,15.60
2022-08-10T05:47:23.442Z,15.70
2022-08-10T05:49:52.735Z,15.80
2022-08-10T05:52:22.711Z,16.00
2022-08-10T05:54:50.265Z,16.10
2022-08-10T05:57:19.598Z,16.30
2022-08-10T06:00:32.782Z,16.40
2022-08-10T06:02:56.038Z,16.50
2022-08-10T06:05:30.346Z,16.60
2022-08-10T06:08:00.389Z,16.80
2022-08-10T06:10:32.285Z,17.00
2022-08-10T06:13:30.313Z,17.20
2022-08-10T06:16:05.465Z,17.30
2022-08-10T06:18:32.821Z,17.50
2022-08-10T06:21:01.646Z,17.60
2022-08-10T06:23:34.759Z,17.70
2022-08-10T06:26:11.332Z,17.90
2022-08-10T06:29:04.367Z,18.00
2022-08-10T06:31:48.113Z,18.20
2022-08-10T06:34:19.191Z,18.30
2022-08-10T06:36:49.145Z,18.30
2022-08-10T06:39:37.611Z,18.40
2022-08-10T06:42:19.972Z,18.50
2022-08-10T06:45:00.544Z,18.70
2022-08-10T06:47:33.614Z,18.80
2022-08-10T06:50:08.883Z,18.90
2022-08-10T06:52:40.047Z,19.10
2022-08-10T06:55:12.429Z,19.20
2022-08-10T06:57:59.374Z,19.50
2022-08-10T07:00:33.926Z,19.50
2022-08-10T07:03:08.577Z,19.80
2022-08-10T07:05:40.580Z,20.00
2022-08-10T07:08:10.923Z,20.10
2022-08-10T07:10:41.064Z,20.30
2022-08-10T07:13:15.094Z,20.50
2022-08-10T07:15:59.797Z,20.60
2022-08-10T07:18:30.738Z,20.70
2022-08-10T07:21:02.163Z,20.80
2022-08-10T07:23:57.083Z,21.00
2022-08-10T07:26:20.980Z,21.10
2022-08-10T07:28:51.719Z,21.10
2022-08-10T07:31:36.147Z,21.10
2022-08-10T07:34:11.678Z,21.20
2022-08-10T07:36:46.113Z,21.30
2022-08-10T07:39:14.338Z,21.40
2022-08-10T07:41:42.878Z,21.50
2022-08-10T07:44:13.662Z,21.60
2022-08-10T07:46:49.067Z,21.80
2022-08-10T07:49:27.751Z,22.00
2022-08-10T07:51:57.189Z,22.20
2022-08-10T07:54:26.521Z,22.30
2022-08-10T07:56:59.640Z,22.50
2022-08-10T07:59:35.383Z,22.50
2022-08-10T08:02:05.089Z,22.70
2022-08-10T08:04:34.030Z,22.70
2022-08-10T08:07:04.331Z,22.80
2022-08-10T08:09:33.284Z,22.80
2022-08-10T08:12:03.912Z,22.90
2022-08-10T08:14:32.658Z,23.00
2022-08-10T08:17:04.243Z,23.00
2022-08-10T08:19:37.256Z,23.00
2022-08-10T08:24:08.955Z,23.10
2022-08-10T08:24:59.311Z,23.30
2022-08-10T08:27:31.269Z,23.40
2022-08-10T08:29:59.691Z,23.50
2022-08-10T08:32:30.131Z,23.60
2022-08-10T08:35:11.794Z,23.60
2022-08-10T08:38:31.759Z,23.70
2022-08-10T08:40:36.818Z,23.70
2022-08-10T08:43:43.705Z,23.70
2022-08-10T08:46:21.759Z,23.80
2022-08-10T08:50:07.418Z,23.80
2022-08-10T08:52:18.187Z,23.80
2022-08-10T08:55:02.863Z,23.80
2022-08-10T08:57:50.453Z,23.90
2022-08-10T09:00:45.378Z,23.90
2022-08-10T09:03:48.548Z,24.00
2022-08-10T09:06:39.622Z,24.10
2022-08-10T09:09:34.799Z,24.20
2022-08-10T09:12:17.586Z,24.30
2022-08-10T09:14:50.325Z,24.30
2022-08-10T09:17:54.591Z,24.30
2022-08-10T09:20:46.495Z,24.40
2022-08-10T09:24:04.038Z,24.40
2022-08-10T09:26:22.144Z,24.40
2022-08-10T09:29:12.394Z,24.50
2022-08-10T09:31:55.770Z,24.50
2022-08-10T09:36:26.998Z,24.50
2022-08-10T09:38:17.246Z,24.50
2022-08-10T09:41:06.309Z,24.60
2022-08-10T09:43:53.347Z,24.60
2022-08-10T09:46:39.901Z,24.70
2022-08-10T09:49:17.251Z,24.80
2022-08-10T09:52:11.931Z,24.90
2022-08-10T09:55:09.386Z,25.00
2022-08-10T09:58:08.760Z,25.10
2022-08-10T10:00:40.412Z,25.20
2022-08-10T10:03:33.571Z,25.30
2022-08-10T10:06:38.544Z,25.40
2022-08-10T10:09:33.352Z,25.40
2022-08-10T10:12:05.250Z,25.30
2022-08-10T10:15:25.213Z,25.50
2022-08-10T10:18:10.129Z,25.80
2022-08-10T10:20:55.545Z,25.70
2022-08-10T10:24:20.350Z,25.70
2022-08-10T10:26:47.074Z,25.70
2022-08-10T10:29:58.359Z,25.80
2022-08-10T10:32:36.736Z,25.90
2022-08-10T10:35:31.877Z,25.80
2022-08-10T10:38:03.656Z,25.90
2022-08-10T10:41:13.657Z,25.90
2022-08-10T10:43:40.381Z,25.80
2022-08-10T10:46:16.304Z,25.80
2022-08-10T10:49:11.915Z,25.90
2022-08-10T10:51:50.636Z,26.10
2022-08-10T10:54:53.840Z,26.20
2022-08-10T10:57:58.838Z,26.40
2022-08-10T11:00:26.155Z,26.40
2022-08-10T11:03:15.399Z,26.60
2022-08-10T11:05:48.042Z,26.60
2022-08-10T11:08:36.829Z,26.60
2022-08-10T11:12:00.225Z,26.50
2022-08-10T11:14:29.654Z,26.30
2022-08-10T11:17:13.292Z,26.20
2022-08-10T11:20:00.431Z,26.30
2022-08-10T11:22:51.359Z,26.30
2022-08-10T11:25:34.554Z,26.20
2022-08-10T11:28:20.399Z,26.20
2022-08-10T11:30:56.381Z,26.20
2022-08-10T11:33:46.691Z,26.30
2022-08-10T11:36:34.688Z,26.40
2022-08-10T11:39:26.069Z,26.30
2022-08-10T11:42:09.929Z,26.30
2022-08-10T11:44:57.711Z,26.30
2022-08-10T11:47:38.936Z,26.30
2022-08-10T11:50:16.369Z,26.30
2022-08-10T11:52:49.278Z,26.40
2022-08-10T11:55:33.580Z,26.50
2022-08-10T11:58:25.208Z,26.50
2022-08-10T12:00:55.871Z,26.50
2022-08-10T12:03:29.299Z,26.50
2022-08-10T12:06:04.360Z,26.40
2022-08-10T12:10:05.551Z,26.50
2022-08-10T12:11:26.386Z,26.50
2022-08-10T12:14:22.761Z,26.60
2022-08-10T12:17:00.699Z,26.50
2022-08-10T12:20:01.136Z,26.40
2022-08-10T12:22:55.091Z,26.40
2022-08-10T12:25:56.296Z,26.50
2022-08-10T12:28:49.329Z,26.60
2022-08-10T12:31:38.420Z,26.60
2022-08-10T12:34:42.038Z,26.60
2022-08-10T12:37:24.332Z,26.60
2022-08-10T12:40:35.163Z,26.50
2022-08-10T12:44:04.959Z,26.60
2022-08-10T12:46:59.301Z,26.70
2022-08-10T12:50:29.254Z,26.70
2022-08-10T12:52:44.361Z,26.70
2022-08-10T12:55:12.208Z,26.80
2022-08-10T12:57:40.325Z,26.80
2022-08-10T13:00:17.265Z,26.90
2022-08-10T13:02:48.842Z,26.90
2022-08-10T13:05:20.026Z,26.80
2022-08-10T13:08:25.361Z,26.70
2022-08-10T13:10:48.665Z,26.70
2022-08-10T13:13:19.659Z,26.80
2022-08-10T13:15:51.219Z,27.00
2022-08-10T13:18:37.893Z,26.90
2022-08-10T13:21:20.023Z,26.90
2022-08-10T13:24:04.168Z,26.90
2022-08-10T13:26:37.323Z,27.00
2022-08-10T13:29:12.956Z,27.10
2022-08-10T13:32:09.300Z,27.10
2022-08-10T13:34:43.767Z,27.00
2022-08-10T13:37:22.561Z,27.10
2022-08-10T13:39:59.176Z,27.10
2022-08-10T13:42:33.421Z,27.10
2022-08-10T13:45:09.155Z,27.20
2022-08-10T13:47:48.947Z,27.10
2022-08-10T13:50:34.617Z,27.10
2022-08-10T13:53:09.958Z,27.20
2022-08-10T13:55:54.568Z,27.30
2022-08-10T13:58:36.020Z,27.20
2022-08-10T14:01:15.278Z,27.20
2022-08-10T14:03:44.399Z,27.30
2022-08-10T14:06:16.241Z,27.30
2022-08-10T14:08:53.130Z,27.30
2022-08-10T14:11:21.927Z,27.30
2022-08-10T14:13:58.879Z,27.30
2022-08-10T14:16:26.054Z,27.40
2022-08-10T14:18:56.524Z,27.40
2022-08-10T14:21:23.517Z,27.40
2022-08-10T14:23:54.024Z,27.50
2022-08-10T14:26:30.970Z,27.50
2022-08-10T14:29:05.521Z,27.60
2022-08-10T14:31:37.101Z,27.60
2022-08-10T14:34:05.444Z,27.70
2022-08-10T14:36:37.027Z,27.70
2022-08-10T14:39:05.070Z,27.80
2022-08-10T14:42:02.678Z,27.80
2022-08-10T14:44:22.602Z,27.70
2022-08-10T14:46:55.909Z,27.90
2022-08-10T14:49:27.342Z,27.80
2022-08-10T14:52:01.236Z,27.80
2022-08-10T14:54:32.213Z,27.90
2022-08-10T14:57:11.534Z,27.80
2022-08-10T15:00:24.835Z,27.80
2022-08-10T15:02:39.950Z,27.80
2022-08-10T15:05:18.007Z,27.80
2022-08-10T15:07:59.311Z,27.80
2022-08-10T15:10:27.166Z,27.90
2022-08-10T15:12:58.709Z,27.90
2022-08-10T15:15:28.865Z,28.00
2022-08-10T15:17:59.741Z,28.10
2022-08-10T15:20:33.736Z,28.10
2022-08-10T15:23:06.004Z,28.10
2022-08-10T15:25:57.619Z,28.00
2022-08-10T15:28:33.272Z,28.00
2022-08-10T15:31:18.229Z,28.10
2022-08-10T15:34:10.279Z,28.20
2022-08-10T15:37:47.127Z,28.20
2022-08-10T15:40:27.932Z,28.10
2022-08-10T15:42:53.760Z,28.20
2022-08-10T15:45:20.872Z,28.90
2022-08-10T15:48:03.561Z,30.80
2022-08-10T15:50:40.176Z,32.30
2022-08-10T15:53:27.862Z,34.20
2022-08-10T15:56:02.609Z,34.40
2022-08-10T15:58:39.687Z,35.00
2022-08-10T16:02:13.290Z,35.00
2022-08-10T16:04:08.253Z,35.70
2022-08-10T16:06:44.508Z,35.70
2022-08-10T16:10:26.306Z,35.60
2022-08-10T16:12:14.813Z,36.70
2022-08-10T16:14:45.920Z,36.40
2022-08-10T16:17:16.480Z,35.80
2022-08-10T16:19:55.038Z,35.60
2022-08-10T16:22:36.496Z,35.90
2022-08-10T16:25:12.158Z,35.80
2022-08-10T16:27:41.111Z,36.00
2022-08-10T16:30:15.322Z,35.60
2022-08-10T16:32:43.293Z,35.70
2022-08-10T16:35:22.185Z,36.40
2022-08-10T16:37:58.079Z,36.70
2022-08-10T16:40:28.961Z,36.40
2022-08-10T16:42:59.749Z,37.40
2022-08-10T16:45:45.696Z,38.30
2022-08-10T16:48:49.150Z,38.60
2022-08-10T16:51:09.893Z,37.60
2022-08-10T16:53:47.669Z,37.60
2022-08-10T16:56:16.131Z,37.60
2022-08-10T16:58:51.803Z,37.60
2022-08-10T17:01:24.679Z,37.40
2022-08-10T17:04:05.555Z,37.40
2022-08-10T17:06:40.788Z,37.20
2022-08-10T17:09:18.644Z,36.90
2022-08-10T17:11:49.076Z,37.00
2022-08-10T17:14:16.326Z,36.90
2022-08-10T17:16:50.816Z,36.80
2022-08-10T17:19:22.686Z,37.20
2022-08-10T17:21:58.172Z,37.30
2022-08-10T17:24:37.631Z,37.50
2022-08-10T17:28:04.448Z,36.90
2022-08-10T17:30:04.391Z,36.70
2022-08-10T17:33:01.117Z,36.20
2022-08-10T17:35:32.280Z,36.10
2022-08-10T17:38:09.174Z,35.90
2022-08-10T17:41:07.077Z,35.80
2022-08-10T17:43:58.546Z,35.50
2022-08-10T17:46:30.269Z,35.50
2022-08-10T17:48:57.438Z,35.30
2022-08-10T17:51:30.096Z,35.30
2022-08-10T17:53:59.635Z,35.10
2022-08-10T17:56:31.588Z,34.90
2022-08-10T17:59:02.500Z,34.50
2022-08-10T18:01:40.557Z,33.90
2022-08-10T18:04:23.759Z,33.50
2022-08-10T18:06:57.351Z,33.40
2022-08-10T18:09:34.272Z,33.20
2022-08-10T18:12:10.147Z,32.70
2022-08-10T18:14:45.416Z,31.70
2022-08-10T18:17:16.755Z,30.50
2022-08-10T18:19:45.144Z,29.60
2022-08-10T18:22:16.183Z,28.90
2022-08-10T18:24:44.593Z,28.40
2022-08-10T18:27:14.563Z,28.00
2022-08-10T18:29:44.658Z,27.60
2022-08-10T18:32:12.256Z,27.30
2022-08-10T18:34:42.582Z,27.00
2022-08-10T18:37:19.543Z,26.70
2022-08-10T18:39:49.007Z,26.50
2022-08-10T18:42:32.911Z,26.40
2022-08-10T18:45:09.020Z,26.30
2022-08-10T18:47:56.029Z,26.00
2022-08-10T18:50:43.309Z,25.80
2022-08-10T18:53:37.895Z,25.70
2022-08-10T18:56:46.064Z,25.50
2022-08-10T18:59:12.828Z,25.30
2022-08-10T19:02:13.493Z,25.10
2022-08-10T19:05:03.329Z,25.00
2022-08-10T19:08:04.560Z,24.70
2022-08-10T19:10:42.747Z,24.60
2022-08-10T19:13:40.029Z,24.40
2022-08-10T19:16:24.015Z,24.30
2022-08-10T19:19:07.331Z,24.10
2022-08-10T19:22:08.781Z,23.90
2022-08-10T19:24:46.369Z,23.80
2022-08-10T19:27:28.245Z,23.70
2022-08-10T19:30:18.867Z,23.60
2022-08-10T19:32:51.341Z,23.50
2022-08-10T19:36:03.508Z,23.30
2022-08-10T19:38:43.929Z,23.20
2022-08-10T19:41:30.952Z,23.00
2022-08-10T19:44:02.707Z,22.80
2022-08-10T19:46:44.549Z,22.70
2022-08-10T19:49:29.991Z,22.60
2022-08-10T19:51:58.899Z,22.40
2022-08-10T19:55:15.130Z,22.30
2022-08-10T19:57:53.932Z,22.20
2022-08-10T20:00:26.977Z,22.00
2022-08-10T20:03:19.943Z,21.90
2022-08-10T20:06:14.555Z,21.70
2022-08-10T20:09:01.311Z,21.60
2022-08-10T20:11:59.206Z,21.50
2022-08-10T20:14:31.298Z,21.40
2022-08-10T20:17:05.256Z,21.30
2022-08-10T20:20:01.188Z,21.20
2022-08-10T20:22:35.203Z,21.10
2022-08-10T20:25:26.465Z,20.90
2022-08-10T20:28:18.484Z,20.90
2022-08-10T20:30:50.308Z,20.70
2022-08-10T20:33:30.344Z,20.60
2022-08-10T20:36:05.936Z,20.60
2022-08-10T20:38:50.369Z,20.50
2022-08-10T20:41:46.323Z,20.40
2022-08-10T20:44:31.426Z,20.30
2022-08-10T20:47:05.509Z,20.20
2022-08-10T20:49:54.937Z,20.10
2022-08-10T20:52:25.314Z,20.00
2022-08-10T20:55:01.540Z,19.90
2022-08-10T20:57:54.243Z,19.90
2022-08-10T21:00:54.099Z,19.90
2022-08-10T21:03:43.651Z,19.70
2022-08-10T21:06:41.450Z,19.70
2022-08-10T21:09:24.440Z,19.60
2022-08-10T21:12:14.167Z,19.50
2022-08-10T21:15:04.412Z,19.40
2022-08-10T21:17:51.497Z,19.40
2022-08-10T21:21:12.374Z,19.20
2022-08-10T21:23:56.967Z,19.20
2022-08-10T21:26:39.030Z,19.10
2022-08-10T21:29:39.664Z,19.00
2022-08-10T21:32:32.835Z,19.00
2022-08-10T21:35:20.330Z,18.80
2022-08-10T21:38:54.631Z,18.80
2022-08-10T21:42:01.153Z,18.60
2022-08-10T21:45:08.099Z,18.60
2022-08-10T21:48:31.778Z,18.50
2022-08-10T21:51:24.369Z,18.50
2022-08-10T21:54:47.228Z,18.50
2022-08-10T21:57:43.092Z,18.40
2022-08-10T22:00:32.278Z,18.30
2022-08-10T22:03:21.320Z,18.20
2022-08-10T22:06:11.223Z,18.10
2022-08-10T22:09:01.694Z,18.00
2022-08-10T22:11:50.735Z,18.00
2022-08-10T22:14:51.923Z,17.90
2022-08-10T22:18:01.122Z,17.80
2022-08-10T22:20:53.026Z,17.70
2022-08-10T22:23:40.985Z,17.70
2022-08-10T22:27:08.206Z,17.70
2022-08-10T22:30:22.568Z,17.60
2022-08-10T22:33:54.018Z,17.50
2022-08-10T22:37:07.880Z,17.40
2022-08-10T22:40:10.216Z,17.30
2022-08-10T22:43:10.848Z,17.30
2022-08-10T22:46:06.166Z,17.20
2022-08-10T22:49:02.338Z,17.10
2022-08-10T22:51:54.576Z,17.00
2022-08-10T22:54:56.422Z,16.90
2022-08-10T22:57:43.011Z,16.80
2022-08-10T23:00:19.037Z,16.80
2022-08-10T23:03:10.617Z,16.80
2022-08-10T23:05:44.204Z,16.70
2022-08-10T23:08:30.180Z,16.70
2022-08-10T23:11:06.384Z,16.70
2022-08-10T23:13:40.526Z,16.60
2022-08-10T23:16:37.024Z,16.50
2022-08-10T23:19:22.276Z,16.50
2022-08-10T23:22:11.100Z,16.40
2022-08-10T23:24:50.741Z,16.40
2022-08-10T23:27:38.949Z,16.40
2022-08-10T23:30:17.458Z,16.40
2022-08-10T23:32:59.097Z,16.30
2022-08-10T23:36:05.614Z,16.30
2022-08-10T23:38:25.977Z,16.20
2022-08-10T23:41:00.949Z,16.20
2022-08-10T23:44:02.448Z,16.10
2022-08-10T23:46:24.789Z,16.10
2022-08-10T23:49:00.654Z,16.10
2022-08-10T23:51:38.688Z,16.00
2022-08-10T23:54:22.441Z,15.90
2022-08-10T23:56:54.257Z,15.80
2022-08-10T23:59:23.603Z,15.80
